createdAt,value
2023-11-29T00:02:05.393Z,102093.72
2023-11-29T00:07:08.520Z,102068.59
2023-11-29T00:12:11.607Z,102123.75
2023-11-29T00:17:14.332Z,102087.16
2023-11-29T00:22:17.070Z,102114.34
2023-11-29T00:27:19.743Z,102101.38
2023-11-29T00:32:23.210Z,102143.69
2023-11-29T00:37:25.967Z,102162.44
2023-11-29T00:42:28.732Z,102160.09
2023-11-29T00:47:31.801Z,102123.66
2023-11-29T00:52:34.758Z,102173.81
2023-11-29T00:57:37.894Z,102123.09
2023-11-29T01:02:40.891Z,102084.97
2023-11-29T01:07:43.949Z,102097.44
2023-11-29T01:12:46.672Z,102147.44
2023-11-29T01:17:49.883Z,102106.53
2023-11-29T01:22:52.745Z,102137.59
2023-11-29T01:27:55.702Z,102116.94
2023-11-29T01:32:58.778Z,102141.41
2023-11-29T01:38:01.863Z,102074.06
2023-11-29T01:43:05.002Z,102142.31
2023-11-29T01:48:08.199Z,102141.28
2023-11-29T01:53:13.481Z,102111.88
2023-11-29T01:58:18.478Z,102124.28
2023-11-29T02:03:22.623Z,102141.03
2023-11-29T02:08:26.404Z,102073.13
2023-11-29T02:13:29.364Z,102059.03
2023-11-29T02:18:32.465Z,102130.03
2023-11-29T02:23:46.614Z,102126.66
2023-11-29T02:28:49.300Z,102124.47
2023-11-29T02:33:52.188Z,102093.81
2023-11-29T02:38:55.119Z,102084.69
2023-11-29T02:43:58.097Z,102055.78
2023-11-29T02:49:00.901Z,102064.31
2023-11-29T02:54:04.078Z,102105.31
2023-11-29T02:59:07.089Z,102120.31
2023-11-29T03:04:10.035Z,102111.63
2023-11-29T03:09:12.975Z,102099.56
2023-11-29T03:14:16.242Z,102104.91
2023-11-29T03:19:19.264Z,102075.00
2023-11-29T03:24:22.078Z,102092.38
2023-11-29T03:29:25.966Z,102079.72
2023-11-29T03:34:29.266Z,102098.59
2023-11-29T03:39:32.323Z,102118.31
2023-11-29T03:44:36.421Z,102155.03
2023-11-29T03:49:39.601Z,102145.00
2023-11-29T03:54:42.293Z,102106.13
2023-11-29T03:59:45.476Z,102119.31
2023-11-29T04:04:48.755Z,102121.53
2023-11-29T04:09:58.241Z,102152.09
2023-11-29T04:15:06.955Z,102134.81
2023-11-29T04:20:09.999Z,102121.78
2023-11-29T04:25:13.063Z,102149.41
2023-11-29T04:30:16.207Z,102158.09
2023-11-29T04:35:19.123Z,102160.78
2023-11-29T04:40:22.062Z,102053.69
2023-11-29T04:45:25.019Z,102128.13
2023-11-29T04:50:28.046Z,102031.44
2023-11-29T04:55:31.104Z,102050.81
2023-11-29T05:00:33.866Z,102137.53
2023-11-29T05:05:37.322Z,102104.03
2023-11-29T05:10:40.426Z,102111.91
2023-11-29T05:15:49.372Z,102099.66
2023-11-29T05:20:52.514Z,102124.78
2023-11-29T05:25:55.247Z,102115.94
2023-11-29T05:30:59.565Z,102069.13
2023-11-29T05:36:02.319Z,102107.91
2023-11-29T05:41:06.647Z,102059.38
2023-11-29T05:46:09.704Z,102107.91
2023-11-29T05:51:14.450Z,102089.94
2023-11-29T05:56:17.427Z,102021.34
2023-11-29T06:01:21.449Z,102087.69
2023-11-29T06:06:24.345Z,102050.03
2023-11-29T06:11:30.572Z,102052.94
2023-11-29T06:16:35.106Z,102074.34
2023-11-29T06:21:40.638Z,102101.22
2023-11-29T06:26:46.496Z,102082.13
2023-11-29T06:31:49.705Z,102103.81
2023-11-29T06:36:52.896Z,102051.88
2023-11-29T06:41:55.727Z,102089.38
2023-11-29T06:47:01.655Z,102122.53
2023-11-29T06:52:04.964Z,102078.97
2023-11-29T06:57:07.757Z,102097.59
2023-11-29T07:02:10.783Z,102074.69
2023-11-29T07:07:13.871Z,102105.84
2023-11-29T07:12:24.048Z,102113.19
2023-11-29T07:17:27.680Z,102081.72
2023-11-29T07:22:30.498Z,102119.66
2023-11-29T07:27:34.266Z,102109.00
2023-11-29T07:32:38.003Z,102086.19
2023-11-29T07:37:41.035Z,102093.72
2023-11-29T07:42:44.253Z,102097.06
2023-11-29T07:47:47.185Z,102061.88
2023-11-29T07:52:50.548Z,102015.72
2023-11-29T07:57:53.725Z,102050.16
2023-11-29T08:02:56.718Z,102052.59
2023-11-29T08:07:59.785Z,102066.84
2023-11-29T08:13:02.671Z,102077.91
2023-11-29T08:18:05.974Z,102026.44
2023-11-29T08:23:08.792Z,102032.91
2023-11-29T08:28:11.933Z,102062.81
2023-11-29T08:33:16.211Z,102027.13
2023-11-29T08:38:21.659Z,102002.56
2023-11-29T08:43:24.695Z,102045.84
2023-11-29T08:48:27.741Z,102024.78
2023-11-29T08:53:37.732Z,102007.41
2023-11-29T08:58:44.016Z,101988.88
2023-11-29T09:03:47.277Z,102012.47
2023-11-29T09:08:51.305Z,102004.31
2023-11-29T09:13:54.159Z,102008.91
2023-11-29T09:18:57.221Z,101988.88
2023-11-29T09:24:00.095Z,101998.09
2023-11-29T09:29:03.634Z,102007.00
2023-11-29T09:34:06.928Z,101983.09
2023-11-29T09:39:14.441Z,101996.28
2023-11-29T09:44:17.708Z,101981.81
2023-11-29T09:49:21.809Z,101935.28
2023-11-29T09:54:26.134Z,101953.59
2023-11-29T09:59:29.078Z,101921.34
2023-11-29T10:04:36.544Z,101900.53
2023-11-29T10:09:40.412Z,101913.69
2023-11-29T10:14:43.412Z,101911.06
2023-11-29T10:19:47.905Z,101896.38
2023-11-29T10:24:50.891Z,101908.94
2023-11-29T10:29:54.369Z,101897.31
2023-11-29T10:34:59.226Z,101887.91
2023-11-29T10:40:04.047Z,101897.28
2023-11-29T10:45:10.974Z,101895.03
2023-11-29T10:50:16.670Z,101872.34
2023-11-29T10:55:22.698Z,101868.88
2023-11-29T11:00:30.138Z,101835.16
2023-11-29T11:05:33.429Z,101858.88
2023-11-29T11:10:37.096Z,101834.19
2023-11-29T11:15:41.984Z,101807.63
2023-11-29T11:20:50.596Z,101856.09
2023-11-29T11:25:57.328Z,101842.09
2023-11-29T11:31:03.923Z,101839.78
2023-11-29T11:36:07.306Z,101828.91
2023-11-29T11:41:10.228Z,101860.38
2023-11-29T11:46:13.676Z,101857.25
2023-11-29T11:51:21.822Z,101847.88
2023-11-29T11:56:24.802Z,101810.78
2023-11-29T12:01:30.638Z,101879.00
2023-11-29T12:06:34.003Z,101835.84
2023-11-29T12:11:38.453Z,101848.84
2023-11-29T12:16:41.528Z,101856.78
2023-11-29T12:21:44.683Z,101819.03
2023-11-29T12:26:47.989Z,101839.78
2023-11-29T12:31:51.086Z,101829.41
2023-11-29T12:36:58.875Z,101826.59
2023-11-29T12:42:02.248Z,101777.69
2023-11-29T12:47:06.390Z,101795.81
2023-11-29T12:52:09.396Z,101805.34
2023-11-29T12:57:12.661Z,101782.97
2023-11-29T13:02:15.799Z,101795.34
2023-11-29T13:07:19.932Z,101812.63
2023-11-29T13:12:22.865Z,101810.63
2023-11-29T13:17:26.040Z,101798.13
2023-11-29T13:22:29.026Z,101795.31
2023-11-29T13:27:31.900Z,101787.44
2023-11-29T13:32:34.762Z,101794.81
2023-11-29T13:37:37.781Z,101806.69
2023-11-29T13:42:40.950Z,101823.47
2023-11-29T13:47:44.090Z,101788.38
2023-11-29T13:52:47.305Z,101815.38
2023-11-29T13:57:50.288Z,101808.16
2023-11-29T14:02:53.768Z,101754.50
2023-11-29T14:07:56.819Z,101804.84
2023-11-29T14:12:59.489Z,101818.88
2023-11-29T14:18:03.993Z,101741.00
2023-11-29T14:23:06.726Z,101778.53
2023-11-29T14:28:10.106Z,101768.31
2023-11-29T14:33:13.421Z,101790.03
2023-11-29T14:38:16.618Z,101780.00
2023-11-29T14:43:19.746Z,101774.59
2023-11-29T14:48:22.878Z,101788.75
2023-11-29T14:53:25.919Z,101785.28
2023-11-29T14:58:28.833Z,101762.72
2023-11-29T15:03:31.727Z,101736.56
2023-11-29T15:08:34.794Z,101760.56
2023-11-29T15:13:42.146Z,101760.91
2023-11-29T15:18:45.575Z,101718.94
2023-11-29T15:23:48.483Z,101738.84
2023-11-29T15:28:51.451Z,101760.59
2023-11-29T15:33:54.556Z,101761.09
2023-11-29T15:38:58.568Z,101756.28
2023-11-29T15:44:01.681Z,101757.28
2023-11-29T15:49:06.372Z,101737.69
2023-11-29T15:54:09.175Z,101771.28
2023-11-29T15:59:12.156Z,101762.06
2023-11-29T16:04:14.928Z,101773.25
2023-11-29T16:09:18.110Z,101752.50
2023-11-29T16:14:21.433Z,101710.19
2023-11-29T16:19:24.454Z,101737.03
2023-11-29T16:24:27.371Z,101713.34
2023-11-29T16:29:30.510Z,101744.63
2023-11-29T16:34:33.308Z,101721.59
2023-11-29T16:39:36.377Z,101762.25
2023-11-29T16:44:39.849Z,101764.69
2023-11-29T16:49:42.644Z,101759.75
2023-11-29T16:54:45.882Z,101765.03
2023-11-29T16:59:48.879Z,101733.25
2023-11-29T17:04:52.172Z,101761.59
2023-11-29T17:09:58.744Z,101758.63
2023-11-29T17:15:01.600Z,101764.72
2023-11-29T17:20:05.464Z,101726.50
2023-11-29T17:25:09.416Z,101776.53
2023-11-29T17:30:13.716Z,101737.06
2023-11-29T17:35:17.580Z,101764.38
2023-11-29T17:40:20.355Z,101735.56
2023-11-29T17:45:24.341Z,101754.31
2023-11-29T17:50:27.276Z,101753.19
2023-11-29T17:55:30.291Z,101726.84
2023-11-29T18:00:33.301Z,101718.59
2023-11-29T18:05:37.056Z,101728.16
2023-11-29T18:10:51.752Z,101711.53
2023-11-29T18:15:55.650Z,101708.38
2023-11-29T18:20:58.521Z,101717.88
2023-11-29T18:26:04.981Z,101693.53
2023-11-29T18:31:08.363Z,101663.78
2023-11-29T18:36:11.579Z,101650.78
2023-11-29T18:41:14.652Z,101674.78
2023-11-29T18:46:17.688Z,101677.59
2023-11-29T18:51:20.732Z,101677.75
2023-11-29T18:56:23.721Z,101693.41
2023-11-29T19:01:26.840Z,101646.84
2023-11-29T19:06:29.602Z,101636.63
2023-11-29T19:11:32.416Z,101651.94
2023-11-29T19:16:35.800Z,101664.44
2023-11-29T19:21:38.472Z,101676.75
2023-11-29T19:26:41.624Z,101674.63
2023-11-29T19:31:48.052Z,101686.31
2023-11-29T19:36:51.391Z,101675.16
2023-11-29T19:41:54.493Z,101629.38
2023-11-29T19:47:07.189Z,101651.44
2023-11-29T19:52:16.955Z,101652.94
2023-11-29T19:57:20.611Z,101641.75
2023-11-29T20:02:24.009Z,101659.00
2023-11-29T20:07:27.409Z,101665.75
2023-11-29T20:12:30.091Z,101621.50
2023-11-29T20:17:33.391Z,101662.13
2023-11-29T20:22:36.792Z,101664.44
2023-11-29T20:27:43.054Z,101651.59
2023-11-29T20:32:45.768Z,101652.44
2023-11-29T20:37:48.618Z,101642.06
2023-11-29T20:42:52.455Z,101612.78
2023-11-29T20:47:55.477Z,101616.91
2023-11-29T20:53:05.715Z,101625.78
2023-11-29T20:58:18.550Z,101630.38
2023-11-29T21:03:21.983Z,101622.63
2023-11-29T21:08:25.122Z,101615.06
2023-11-29T21:13:28.295Z,101594.53
2023-11-29T21:18:31.498Z,101574.47
2023-11-29T21:23:34.420Z,101601.25
2023-11-29T21:28:39.308Z,101560.31
2023-11-29T21:33:42.303Z,101560.16
2023-11-29T21:38:45.439Z,101598.31
2023-11-29T21:43:48.394Z,101598.81
2023-11-29T21:48:51.372Z,101569.38
2023-11-29T21:53:54.378Z,101591.72
2023-11-29T21:58:57.107Z,101571.66
2023-11-29T22:04:00.253Z,101579.41
2023-11-29T22:09:03.115Z,101587.78
2023-11-29T22:14:06.025Z,101551.09
2023-11-29T22:19:10.330Z,101600.13
2023-11-29T22:24:13.067Z,101605.19
2023-11-29T22:29:16.190Z,101575.44
2023-11-29T22:34:19.258Z,101576.09
2023-11-29T22:39:22.336Z,101591.06
2023-11-29T22:44:25.668Z,101589.56
2023-11-29T22:49:28.899Z,101585.97
2023-11-29T22:54:32.206Z,101610.31
2023-11-29T22:59:35.028Z,101593.03
2023-11-29T23:04:38.093Z,101604.88
2023-11-29T23:09:41.914Z,101609.66
2023-11-29T23:14:45.021Z,101571.50
2023-11-29T23:19:48.921Z,101593.88
2023-11-29T23:24:51.984Z,101614.59
2023-11-29T23:29:54.783Z,101596.97
2023-11-29T23:34:57.908Z,101608.34
2023-11-29T23:40:00.728Z,101603.09
2023-11-29T23:45:04.357Z,101586.31
2023-11-29T23:50:09.422Z,101593.72
2023-11-29T23:55:12.304Z,101601.44
